sensor_id;sensor_type;location;lat;lon;timestamp;temperature;humidity
24678;DHT22;12800;53.094;8.778;2023-12-20T00:00:08;8.30;90.70
24678;DHT22;12800;53.094;8.778;2023-12-20T00:02:34;8.30;90.60
24678;DHT22;12800;53.094;8.778;2023-12-20T00:05:00;8.30;90.60
24678;DHT22;12800;53.094;8.778;2023-12-20T00:07:26;8.30;90.60
24678;DHT22;12800;53.094;8.778;2023-12-20T00:09:51;8.30;90.60
24678;DHT22;12800;53.094;8.778;2023-12-20T00:12:17;8.30;90.70
24678;DHT22;12800;53.094;8.778;2023-12-20T00:14:42;8.30;90.70
24678;DHT22;12800;53.094;8.778;2023-12-20T00:17:08;8.20;90.60
24678;DHT22;12800;53.094;8.778;2023-12-20T00:19:33;8.20;90.60
24678;DHT22;12800;53.094;8.778;2023-12-20T00:21:59;8.20;90.60
24678;DHT22;12800;53.094;8.778;2023-12-20T00:24:25;8.20;90.60
24678;DHT22;12800;53.094;8.778;2023-12-20T00:26:50;8.20;90.60
24678;DHT22;12800;53.094;8.778;2023-12-20T00:29:16;8.20;90.60
24678;DHT22;12800;53.094;8.778;2023-12-20T00:31:42;8.20;90.60
24678;DHT22;12800;53.094;8.778;2023-12-20T00:34:07;8.20;90.60
24678;DHT22;12800;53.094;8.778;2023-12-20T00:36:33;8.20;90.60
24678;DHT22;12800;53.094;8.778;2023-12-20T00:38:58;8.20;90.50
24678;DHT22;12800;53.094;8.778;2023-12-20T00:41:24;8.10;90.50
24678;DHT22;12800;53.094;8.778;2023-12-20T00:43:50;8.10;90.40
24678;DHT22;12800;53.094;8.778;2023-12-20T00:46:15;8.10;90.50
24678;DHT22;12800;53.094;8.778;2023-12-20T00:48:41;8.10;90.50
24678;DHT22;12800;53.094;8.778;2023-12-20T00:51:07;8.10;90.50
24678;DHT22;12800;53.094;8.778;2023-12-20T00:53:33;8.10;90.50
24678;DHT22;12800;53.094;8.778;2023-12-20T00:55:59;8.10;90.60
24678;DHT22;12800;53.094;8.778;2023-12-20T00:58:24;8.00;90.50
24678;DHT22;12800;53.094;8.778;2023-12-20T01:00:50;8.10;90.50
24678;DHT22;12800;53.094;8.778;2023-12-20T01:03:16;8.00;90.50
24678;DHT22;12800;53.094;8.778;2023-12-20T01:05:42;8.00;90.50
24678;DHT22;12800;53.094;8.778;2023-12-20T01:08:07;8.00;90.50
24678;DHT22;12800;53.094;8.778;2023-12-20T01:10:33;8.00;90.50
24678;DHT22;12800;53.094;8.778;2023-12-20T01:12:58;8.00;90.50
24678;DHT22;12800;53.094;8.778;2023-12-20T01:15:24;8.00;90.50
24678;DHT22;12800;53.094;8.778;2023-12-20T01:17:50;7.90;90.50
24678;DHT22;12800;53.094;8.778;2023-12-20T01:20:16;7.90;90.50
24678;DHT22;12800;53.094;8.778;2023-12-20T01:22:42;7.90;90.50
24678;DHT22;12800;53.094;8.778;2023-12-20T01:25:08;7.90;90.50
24678;DHT22;12800;53.094;8.778;2023-12-20T01:27:34;7.90;90.60
24678;DHT22;12800;53.094;8.778;2023-12-20T01:29:59;7.90;90.60
24678;DHT22;12800;53.094;8.778;2023-12-20T01:32:25;7.90;90.60
24678;DHT22;12800;53.094;8.778;2023-12-20T01:34:50;7.80;90.50
24678;DHT22;12800;53.094;8.778;2023-12-20T01:37:16;7.90;90.60
24678;DHT22;12800;53.094;8.778;2023-12-20T01:39:42;7.80;90.60
24678;DHT22;12800;53.094;8.778;2023-12-20T01:42:07;7.90;90.60
24678;DHT22;12800;53.094;8.778;2023-12-20T01:44:33;7.80;90.50
24678;DHT22;12800;53.094;8.778;2023-12-20T01:46:59;7.80;90.60
24678;DHT22;12800;53.094;8.778;2023-12-20T01:49:25;7.90;90.60
24678;DHT22;12800;53.094;8.778;2023-12-20T01:51:51;7.90;90.60
24678;DHT22;12800;53.094;8.778;2023-12-20T01:54:17;7.90;90.60
24678;DHT22;12800;53.094;8.778;2023-12-20T01:56:44;7.90;90.50
24678;DHT22;12800;53.094;8.778;2023-12-20T01:59:10;7.90;90.50
24678;DHT22;12800;53.094;8.778;2023-12-20T02:01:36;7.90;90.40
24678;DHT22;12800;53.094;8.778;2023-12-20T02:04:02;7.80;90.40
24678;DHT22;12800;53.094;8.778;2023-12-20T02:06:30;7.80;90.40
24678;DHT22;12800;53.094;8.778;2023-12-20T02:08:59;7.80;90.50
24678;DHT22;12800;53.094;8.778;2023-12-20T02:11:26;7.80;90.50
24678;DHT22;12800;53.094;8.778;2023-12-20T02:13:52;7.80;90.50
24678;DHT22;12800;53.094;8.778;2023-12-20T02:16:18;7.80;90.50
24678;DHT22;12800;53.094;8.778;2023-12-20T02:18:44;7.80;90.40
24678;DHT22;12800;53.094;8.778;2023-12-20T02:21:10;7.80;90.40
24678;DHT22;12800;53.094;8.778;2023-12-20T02:23:36;7.80;90.50
24678;DHT22;12800;53.094;8.778;2023-12-20T02:26:02;7.70;90.40
24678;DHT22;12800;53.094;8.778;2023-12-20T02:28:28;7.80;90.50
24678;DHT22;12800;53.094;8.778;2023-12-20T02:30:54;7.80;90.50
24678;DHT22;12800;53.094;8.778;2023-12-20T02:33:20;7.70;90.40
24678;DHT22;12800;53.094;8.778;2023-12-20T02:35:46;7.70;90.50
24678;DHT22;12800;53.094;8.778;2023-12-20T02:38:11;7.80;90.50
24678;DHT22;12800;53.094;8.778;2023-12-20T02:40:37;7.70;90.50
24678;DHT22;12800;53.094;8.778;2023-12-20T02:43:03;7.80;90.50
24678;DHT22;12800;53.094;8.778;2023-12-20T02:45:28;7.80;90.50
24678;DHT22;12800;53.094;8.778;2023-12-20T02:47:54;7.80;90.50
24678;DHT22;12800;53.094;8.778;2023-12-20T02:50:20;7.80;90.50
24678;DHT22;12800;53.094;8.778;2023-12-20T02:52:45;7.80;90.50
24678;DHT22;12800;53.094;8.778;2023-12-20T02:55:11;7.80;90.50
24678;DHT22;12800;53.094;8.778;2023-12-20T02:57:37;7.80;90.50
24678;DHT22;12800;53.094;8.778;2023-12-20T03:00:08;7.80;90.50
24678;DHT22;12800;53.094;8.778;2023-12-20T03:02:34;7.90;90.90
24678;DHT22;12800;53.094;8.778;2023-12-20T03:05:00;7.90;90.40
24678;DHT22;12800;53.094;8.778;2023-12-20T03:07:26;7.80;90.40
24678;DHT22;12800;53.094;8.778;2023-12-20T03:09:52;7.90;90.40
24678;DHT22;12800;53.094;8.778;2023-12-20T03:12:17;7.90;90.50
24678;DHT22;12800;53.094;8.778;2023-12-20T03:14:44;7.90;90.50
24678;DHT22;12800;53.094;8.778;2023-12-20T03:17:10;7.90;90.40
24678;DHT22;12800;53.094;8.778;2023-12-20T03:19:36;7.90;90.40
24678;DHT22;12800;53.094;8.778;2023-12-20T03:22:01;7.90;90.50
24678;DHT22;12800;53.094;8.778;2023-12-20T03:24:27;7.90;90.40
24678;DHT22;12800;53.094;8.778;2023-12-20T03:26:53;7.90;90.40
24678;DHT22;12800;53.094;8.778;2023-12-20T03:29:18;7.90;90.40
24678;DHT22;12800;53.094;8.778;2023-12-20T03:31:44;7.90;90.30
24678;DHT22;12800;53.094;8.778;2023-12-20T03:34:11;7.90;90.40
24678;DHT22;12800;53.094;8.778;2023-12-20T03:36:36;8.00;90.40
24678;DHT22;12800;53.094;8.778;2023-12-20T03:39:02;8.00;90.40
24678;DHT22;12800;53.094;8.778;2023-12-20T03:41:28;8.00;90.30
24678;DHT22;12800;53.094;8.778;2023-12-20T03:43:54;8.00;90.30
24678;DHT22;12800;53.094;8.778;2023-12-20T03:46:19;8.00;90.30
24678;DHT22;12800;53.094;8.778;2023-12-20T03:48:45;8.00;90.30
24678;DHT22;12800;53.094;8.778;2023-12-20T03:51:10;8.00;90.40
24678;DHT22;12800;53.094;8.778;2023-12-20T03:53:36;8.00;90.30
24678;DHT22;12800;53.094;8.778;2023-12-20T03:56:02;8.00;90.30
24678;DHT22;12800;53.094;8.778;2023-12-20T03:58:27;8.00;90.30
24678;DHT22;12800;53.094;8.778;2023-12-20T04:00:53;8.00;90.30
24678;DHT22;12800;53.094;8.778;2023-12-20T04:03:18;8.00;90.30
24678;DHT22;12800;53.094;8.778;2023-12-20T04:05:44;8.00;90.30
24678;DHT22;12800;53.094;8.778;2023-12-20T04:08:10;8.00;90.30
24678;DHT22;12800;53.094;8.778;2023-12-20T04:10:36;8.00;90.30
24678;DHT22;12800;53.094;8.778;2023-12-20T04:13:03;8.00;90.30
24678;DHT22;12800;53.094;8.778;2023-12-20T04:15:28;8.00;90.30
24678;DHT22;12800;53.094;8.778;2023-12-20T04:17:54;8.00;90.30
24678;DHT22;12800;53.094;8.778;2023-12-20T04:20:20;8.00;90.20
24678;DHT22;12800;53.094;8.778;2023-12-20T04:22:45;8.00;90.20
24678;DHT22;12800;53.094;8.778;2023-12-20T04:25:11;8.00;90.20
24678;DHT22;12800;53.094;8.778;2023-12-20T04:27:37;8.00;90.50
24678;DHT22;12800;53.094;8.778;2023-12-20T04:30:03;8.00;90.10
24678;DHT22;12800;53.094;8.778;2023-12-20T04:32:29;8.00;90.20
24678;DHT22;12800;53.094;8.778;2023-12-20T04:34:54;8.00;90.20
24678;DHT22;12800;53.094;8.778;2023-12-20T04:37:20;8.00;90.10
24678;DHT22;12800;53.094;8.778;2023-12-20T04:39:45;8.00;90.10
24678;DHT22;12800;53.094;8.778;2023-12-20T04:42:11;8.00;90.10
24678;DHT22;12800;53.094;8.778;2023-12-20T04:44:37;8.00;90.10
24678;DHT22;12800;53.094;8.778;2023-12-20T04:47:02;8.00;90.10
24678;DHT22;12800;53.094;8.778;2023-12-20T04:49:28;8.00;90.10
24678;DHT22;12800;53.094;8.778;2023-12-20T04:51:54;8.00;90.10
24678;DHT22;12800;53.094;8.778;2023-12-20T04:54:21;8.00;90.10
24678;DHT22;12800;53.094;8.778;2023-12-20T04:56:46;8.00;90.20
24678;DHT22;12800;53.094;8.778;2023-12-20T04:59:12;8.00;90.20
24678;DHT22;12800;53.094;8.778;2023-12-20T05:01:38;8.00;90.20
24678;DHT22;12800;53.094;8.778;2023-12-20T05:04:04;8.00;90.20
24678;DHT22;12800;53.094;8.778;2023-12-20T05:06:30;8.10;90.20
24678;DHT22;12800;53.094;8.778;2023-12-20T05:08:55;8.10;90.10
24678;DHT22;12800;53.094;8.778;2023-12-20T05:11:21;8.00;90.10
24678;DHT22;12800;53.094;8.778;2023-12-20T05:13:46;8.00;90.10
24678;DHT22;12800;53.094;8.778;2023-12-20T05:16:12;8.00;90.20
24678;DHT22;12800;53.094;8.778;2023-12-20T05:18:39;8.10;90.20
24678;DHT22;12800;53.094;8.778;2023-12-20T05:21:05;8.10;90.10
24678;DHT22;12800;53.094;8.778;2023-12-20T05:23:31;8.00;90.10
24678;DHT22;12800;53.094;8.778;2023-12-20T05:25:56;8.00;90.10
24678;DHT22;12800;53.094;8.778;2023-12-20T05:28:22;8.10;90.10
24678;DHT22;12800;53.094;8.778;2023-12-20T05:30:48;8.00;90.10
24678;DHT22;12800;53.094;8.778;2023-12-20T05:33:14;8.00;90.10
24678;DHT22;12800;53.094;8.778;2023-12-20T05:35:39;8.10;90.10
24678;DHT22;12800;53.094;8.778;2023-12-20T05:38:05;8.00;90.10
24678;DHT22;12800;53.094;8.778;2023-12-20T05:40:30;8.00;90.10
24678;DHT22;12800;53.094;8.778;2023-12-20T05:42:56;8.00;90.40
24678;DHT22;12800;53.094;8.778;2023-12-20T05:45:21;8.00;90.10
24678;DHT22;12800;53.094;8.778;2023-12-20T05:47:47;8.00;90.10
24678;DHT22;12800;53.094;8.778;2023-12-20T05:50:12;8.00;90.10
24678;DHT22;12800;53.094;8.778;2023-12-20T05:52:38;8.00;90.10
24678;DHT22;12800;53.094;8.778;2023-12-20T05:55:04;8.00;90.10
24678;DHT22;12800;53.094;8.778;2023-12-20T05:57:29;8.00;90.00
24678;DHT22;12800;53.094;8.778;2023-12-20T05:59:55;8.00;90.00
24678;DHT22;12800;53.094;8.778;2023-12-20T06:02:20;8.00;90.00
24678;DHT22;12800;53.094;8.778;2023-12-20T06:04:46;8.10;90.10
24678;DHT22;12800;53.094;8.778;2023-12-20T06:07:12;8.10;90.00
24678;DHT22;12800;53.094;8.778;2023-12-20T06:09:38;8.10;90.00
24678;DHT22;12800;53.094;8.778;2023-12-20T06:12:04;8.10;89.90
24678;DHT22;12800;53.094;8.778;2023-12-20T06:14:29;8.10;90.00
24678;DHT22;12800;53.094;8.778;2023-12-20T06:16:56;8.00;89.90
24678;DHT22;12800;53.094;8.778;2023-12-20T06:19:22;8.10;90.00
24678;DHT22;12800;53.094;8.778;2023-12-20T06:21:48;8.10;90.00
24678;DHT22;12800;53.094;8.778;2023-12-20T06:24:13;8.10;90.10
24678;DHT22;12800;53.094;8.778;2023-12-20T06:26:39;8.10;90.10
24678;DHT22;12800;53.094;8.778;2023-12-20T06:29:05;8.20;90.10
24678;DHT22;12800;53.094;8.778;2023-12-20T06:31:30;8.20;90.10
24678;DHT22;12800;53.094;8.778;2023-12-20T06:33:58;8.20;90.10
24678;DHT22;12800;53.094;8.778;2023-12-20T06:36:25;8.20;90.10
24678;DHT22;12800;53.094;8.778;2023-12-20T06:38:51;8.20;90.10
24678;DHT22;12800;53.094;8.778;2023-12-20T06:41:17;8.30;90.10
24678;DHT22;12800;53.094;8.778;2023-12-20T06:43:43;8.30;90.00
24678;DHT22;12800;53.094;8.778;2023-12-20T06:46:09;8.20;89.90
24678;DHT22;12800;53.094;8.778;2023-12-20T06:48:35;8.20;89.90
24678;DHT22;12800;53.094;8.778;2023-12-20T06:51:01;8.20;89.80
24678;DHT22;12800;53.094;8.778;2023-12-20T06:53:30;8.20;89.80
24678;DHT22;12800;53.094;8.778;2023-12-20T06:55:55;8.30;89.90
24678;DHT22;12800;53.094;8.778;2023-12-20T06:58:24;8.30;89.70
24678;DHT22;12800;53.094;8.778;2023-12-20T07:00:50;8.30;89.80
24678;DHT22;12800;53.094;8.778;2023-12-20T07:03:17;8.30;89.90
24678;DHT22;12800;53.094;8.778;2023-12-20T07:05:43;8.30;89.80
24678;DHT22;12800;53.094;8.778;2023-12-20T07:08:09;8.30;89.80
24678;DHT22;12800;53.094;8.778;2023-12-20T07:10:34;8.30;89.90
24678;DHT22;12800;53.094;8.778;2023-12-20T07:13:00;8.30;90.30
24678;DHT22;12800;53.094;8.778;2023-12-20T07:15:25;8.30;89.90
24678;DHT22;12800;53.094;8.778;2023-12-20T07:17:52;8.30;90.00
24678;DHT22;12800;53.094;8.778;2023-12-20T07:20:18;8.40;90.00
24678;DHT22;12800;53.094;8.778;2023-12-20T07:22:44;8.40;89.70
24678;DHT22;12800;53.094;8.778;2023-12-20T07:25:09;8.40;89.70
24678;DHT22;12800;53.094;8.778;2023-12-20T07:27:36;8.40;89.70
24678;DHT22;12800;53.094;8.778;2023-12-20T07:30:01;8.30;89.50
24678;DHT22;12800;53.094;8.778;2023-12-20T07:32:27;8.30;89.60
24678;DHT22;12800;53.094;8.778;2023-12-20T07:34:53;8.30;89.80
24678;DHT22;12800;53.094;8.778;2023-12-20T07:37:20;8.40;89.80
24678;DHT22;12800;53.094;8.778;2023-12-20T07:39:46;8.40;89.90
24678;DHT22;12800;53.094;8.778;2023-12-20T07:42:12;8.40;89.90
24678;DHT22;12800;53.094;8.778;2023-12-20T07:44:37;8.40;89.80
24678;DHT22;12800;53.094;8.778;2023-12-20T07:47:03;8.40;89.80
24678;DHT22;12800;53.094;8.778;2023-12-20T07:49:30;8.40;89.90
24678;DHT22;12800;53.094;8.778;2023-12-20T07:51:56;8.40;89.90
24678;DHT22;12800;53.094;8.778;2023-12-20T07:54:21;8.40;89.90
24678;DHT22;12800;53.094;8.778;2023-12-20T07:56:48;8.50;89.80
24678;DHT22;12800;53.094;8.778;2023-12-20T07:59:14;8.50;89.90
24678;DHT22;12800;53.094;8.778;2023-12-20T08:01:39;8.50;90.00
24678;DHT22;12800;53.094;8.778;2023-12-20T08:04:05;8.50;90.00
24678;DHT22;12800;53.094;8.778;2023-12-20T08:06:31;8.50;90.00
24678;DHT22;12800;53.094;8.778;2023-12-20T08:08:57;8.50;90.00
24678;DHT22;12800;53.094;8.778;2023-12-20T08:11:22;8.50;90.00
24678;DHT22;12800;53.094;8.778;2023-12-20T08:13:48;8.50;90.00
24678;DHT22;12800;53.094;8.778;2023-12-20T08:16:14;8.50;89.90
24678;DHT22;12800;53.094;8.778;2023-12-20T08:18:41;8.50;90.00
24678;DHT22;12800;53.094;8.778;2023-12-20T08:21:07;8.50;90.00
24678;DHT22;12800;53.094;8.778;2023-12-20T08:23:34;8.60;90.00
24678;DHT22;12800;53.094;8.778;2023-12-20T08:26:07;8.60;90.00
24678;DHT22;12800;53.094;8.778;2023-12-20T08:28:33;8.60;90.00
24678;DHT22;12800;53.094;8.778;2023-12-20T08:30:59;8.60;89.90
24678;DHT22;12800;53.094;8.778;2023-12-20T08:33:25;8.70;89.90
24678;DHT22;12800;53.094;8.778;2023-12-20T08:35:51;8.70;89.90
24678;DHT22;12800;53.094;8.778;2023-12-20T08:38:16;8.70;89.90
24678;DHT22;12800;53.094;8.778;2023-12-20T08:40:43;8.70;89.90
24678;DHT22;12800;53.094;8.778;2023-12-20T08:43:09;8.80;89.90
24678;DHT22;12800;53.094;8.778;2023-12-20T08:45:35;8.80;89.80
24678;DHT22;12800;53.094;8.778;2023-12-20T08:48:01;8.80;89.80
24678;DHT22;12800;53.094;8.778;2023-12-20T08:50:26;8.80;89.80
24678;DHT22;12800;53.094;8.778;2023-12-20T08:52:52;8.80;89.90
24678;DHT22;12800;53.094;8.778;2023-12-20T08:55:19;8.80;89.80
24678;DHT22;12800;53.094;8.778;2023-12-20T08:57:44;8.90;89.80
24678;DHT22;12800;53.094;8.778;2023-12-20T09:00:11;8.90;89.70
24678;DHT22;12800;53.094;8.778;2023-12-20T09:02:36;8.90;89.60
24678;DHT22;12800;53.094;8.778;2023-12-20T09:05:03;8.90;89.60
24678;DHT22;12800;53.094;8.778;2023-12-20T09:07:28;8.80;89.70
24678;DHT22;12800;53.094;8.778;2023-12-20T09:09:57;8.80;89.90
24678;DHT22;12800;53.094;8.778;2023-12-20T09:12:23;8.80;90.00
24678;DHT22;12800;53.094;8.778;2023-12-20T09:14:50;8.80;90.00
24678;DHT22;12800;53.094;8.778;2023-12-20T09:17:17;8.70;89.90
24678;DHT22;12800;53.094;8.778;2023-12-20T09:19:43;8.70;90.00
24678;DHT22;12800;53.094;8.778;2023-12-20T09:22:10;8.70;90.20
24678;DHT22;12800;53.094;8.778;2023-12-20T09:24:35;8.70;90.30
24678;DHT22;12800;53.094;8.778;2023-12-20T09:27:01;8.70;90.20
24678;DHT22;12800;53.094;8.778;2023-12-20T09:29:28;8.70;90.20
24678;DHT22;12800;53.094;8.778;2023-12-20T09:31:54;8.60;90.20
24678;DHT22;12800;53.094;8.778;2023-12-20T09:34:20;8.60;90.20
24678;DHT22;12800;53.094;8.778;2023-12-20T09:36:46;8.60;90.30
24678;DHT22;12800;53.094;8.778;2023-12-20T09:39:19;8.60;90.40
24678;DHT22;12800;53.094;8.778;2023-12-20T09:41:52;8.60;90.50
24678;DHT22;12800;53.094;8.778;2023-12-20T09:44:22;8.60;90.60
24678;DHT22;12800;53.094;8.778;2023-12-20T09:46:50;8.60;90.60
24678;DHT22;12800;53.094;8.778;2023-12-20T09:49:18;8.60;90.50
24678;DHT22;12800;53.094;8.778;2023-12-20T09:51:46;8.50;90.40
24678;DHT22;12800;53.094;8.778;2023-12-20T09:54:14;8.40;90.40
24678;DHT22;12800;53.094;8.778;2023-12-20T09:56:40;8.30;90.30
24678;DHT22;12800;53.094;8.778;2023-12-20T09:59:05;8.10;90.20
24678;DHT22;12800;53.094;8.778;2023-12-20T10:01:31;8.00;90.20
24678;DHT22;12800;53.094;8.778;2023-12-20T10:04:00;8.00;90.20
24678;DHT22;12800;53.094;8.778;2023-12-20T10:06:27;7.80;90.20
24678;DHT22;12800;53.094;8.778;2023-12-20T10:08:53;7.80;90.20
24678;DHT22;12800;53.094;8.778;2023-12-20T10:11:19;7.80;90.30
24678;DHT22;12800;53.094;8.778;2023-12-20T10:13:47;7.80;90.40
24678;DHT22;12800;53.094;8.778;2023-12-20T10:16:13;7.80;90.40
24678;DHT22;12800;53.094;8.778;2023-12-20T10:18:39;7.80;90.40
24678;DHT22;12800;53.094;8.778;2023-12-20T10:21:06;7.70;90.30
24678;DHT22;12800;53.094;8.778;2023-12-20T10:23:32;7.70;90.40
24678;DHT22;12800;53.094;8.778;2023-12-20T10:25:59;7.70;90.40
24678;DHT22;12800;53.094;8.778;2023-12-20T10:28:25;7.80;90.40
24678;DHT22;12800;53.094;8.778;2023-12-20T10:30:54;7.70;90.30
24678;DHT22;12800;53.094;8.778;2023-12-20T10:33:24;7.70;90.30
24678;DHT22;12800;53.094;8.778;2023-12-20T10:35:52;7.70;90.30
24678;DHT22;12800;53.094;8.778;2023-12-20T10:38:17;7.70;90.40
24678;DHT22;12800;53.094;8.778;2023-12-20T10:40:45;7.70;90.80
24678;DHT22;12800;53.094;8.778;2023-12-20T10:43:11;7.80;90.40
24678;DHT22;12800;53.094;8.778;2023-12-20T10:45:37;7.80;90.40
24678;DHT22;12800;53.094;8.778;2023-12-20T10:48:04;7.80;90.40
24678;DHT22;12800;53.094;8.778;2023-12-20T10:50:30;7.90;90.70
24678;DHT22;12800;53.094;8.778;2023-12-20T10:52:57;7.90;90.30
24678;DHT22;12800;53.094;8.778;2023-12-20T10:55:23;7.90;90.30
24678;DHT22;12800;53.094;8.778;2023-12-20T10:57:51;7.80;90.20
24678;DHT22;12800;53.094;8.778;2023-12-20T11:00:18;7.80;90.20
24678;DHT22;12800;53.094;8.778;2023-12-20T11:02:44;7.80;90.20
24678;DHT22;12800;53.094;8.778;2023-12-20T11:05:22;7.80;90.20
24678;DHT22;12800;53.094;8.778;2023-12-20T11:07:55;7.80;90.20
24678;DHT22;12800;53.094;8.778;2023-12-20T11:10:26;7.80;90.20
24678;DHT22;12800;53.094;8.778;2023-12-20T11:12:59;7.80;90.20
24678;DHT22;12800;53.094;8.778;2023-12-20T11:15:26;7.80;90.10
24678;DHT22;12800;53.094;8.778;2023-12-20T11:17:56;7.80;90.10
24678;DHT22;12800;53.094;8.778;2023-12-20T11:20:23;7.80;90.10
24678;DHT22;12800;53.094;8.778;2023-12-20T11:22:53;7.80;90.10
24678;DHT22;12800;53.094;8.778;2023-12-20T11:25:20;7.80;90.10
24678;DHT22;12800;53.094;8.778;2023-12-20T11:28:11;7.90;90.10
24678;DHT22;12800;53.094;8.778;2023-12-20T11:30:57;7.90;90.20
24678;DHT22;12800;53.094;8.778;2023-12-20T11:33:45;8.00;90.10
24678;DHT22;12800;53.094;8.778;2023-12-20T11:36:14;8.10;89.90
24678;DHT22;12800;53.094;8.778;2023-12-20T11:38:58;8.10;89.60
24678;DHT22;12800;53.094;8.778;2023-12-20T11:41:26;8.10;89.50
24678;DHT22;12800;53.094;8.778;2023-12-20T11:43:55;8.10;89.40
24678;DHT22;12800;53.094;8.778;2023-12-20T11:46:22;8.10;89.50
24678;DHT22;12800;53.094;8.778;2023-12-20T11:48:48;8.20;89.70
24678;DHT22;12800;53.094;8.778;2023-12-20T11:51:14;8.30;89.80
24678;DHT22;12800;53.094;8.778;2023-12-20T11:53:40;8.40;89.40
24678;DHT22;12800;53.094;8.778;2023-12-20T11:56:07;8.40;89.00
24678;DHT22;12800;53.094;8.778;2023-12-20T11:58:34;8.40;88.70
24678;DHT22;12800;53.094;8.778;2023-12-20T12:00:59;8.40;88.90
24678;DHT22;12800;53.094;8.778;2023-12-20T12:03:27;8.40;88.50
24678;DHT22;12800;53.094;8.778;2023-12-20T12:05:53;8.40;88.30
24678;DHT22;12800;53.094;8.778;2023-12-20T12:08:19;8.40;88.40
24678;DHT22;12800;53.094;8.778;2023-12-20T12:10:45;8.40;88.50
24678;DHT22;12800;53.094;8.778;2023-12-20T12:13:10;8.50;88.50
24678;DHT22;12800;53.094;8.778;2023-12-20T12:15:37;8.60;88.80
24678;DHT22;12800;53.094;8.778;2023-12-20T12:18:03;8.60;88.50
24678;DHT22;12800;53.094;8.778;2023-12-20T12:20:29;8.70;88.30
24678;DHT22;12800;53.094;8.778;2023-12-20T12:23:05;8.70;88.40
24678;DHT22;12800;53.094;8.778;2023-12-20T12:25:32;8.70;88.50
24678;DHT22;12800;53.094;8.778;2023-12-20T12:27:58;8.80;88.30
24678;DHT22;12800;53.094;8.778;2023-12-20T12:30:24;8.80;88.20
24678;DHT22;12800;53.094;8.778;2023-12-20T12:32:51;8.80;88.10
24678;DHT22;12800;53.094;8.778;2023-12-20T12:35:18;8.80;88.00
24678;DHT22;12800;53.094;8.778;2023-12-20T12:37:44;8.80;87.60
24678;DHT22;12800;53.094;8.778;2023-12-20T12:40:11;8.70;88.10
24678;DHT22;12800;53.094;8.778;2023-12-20T12:42:38;8.70;87.00
24678;DHT22;12800;53.094;8.778;2023-12-20T12:45:04;8.60;86.70
24678;DHT22;12800;53.094;8.778;2023-12-20T12:47:30;8.60;86.70
24678;DHT22;12800;53.094;8.778;2023-12-20T12:49:56;8.60;86.70
24678;DHT22;12800;53.094;8.778;2023-12-20T12:52:21;8.60;86.80
24678;DHT22;12800;53.094;8.778;2023-12-20T12:54:48;8.70;87.10
24678;DHT22;12800;53.094;8.778;2023-12-20T12:57:14;8.70;87.10
24678;DHT22;12800;53.094;8.778;2023-12-20T12:59:42;8.70;87.20
24678;DHT22;12800;53.094;8.778;2023-12-20T13:02:09;8.70;87.30
24678;DHT22;12800;53.094;8.778;2023-12-20T13:04:34;8.70;87.40
24678;DHT22;12800;53.094;8.778;2023-12-20T13:07:00;8.70;87.40
24678;DHT22;12800;53.094;8.778;2023-12-20T13:09:26;8.70;86.90
24678;DHT22;12800;53.094;8.778;2023-12-20T13:11:51;8.60;86.50
24678;DHT22;12800;53.094;8.778;2023-12-20T13:14:17;8.60;86.50
24678;DHT22;12800;53.094;8.778;2023-12-20T13:16:43;8.60;86.50
24678;DHT22;12800;53.094;8.778;2023-12-20T13:19:10;8.60;87.10
24678;DHT22;12800;53.094;8.778;2023-12-20T13:21:36;8.50;86.30
24678;DHT22;12800;53.094;8.778;2023-12-20T13:24:01;8.50;87.30
24678;DHT22;12800;53.094;8.778;2023-12-20T13:26:27;8.60;86.80
24678;DHT22;12800;53.094;8.778;2023-12-20T13:28:54;8.60;86.70
24678;DHT22;12800;53.094;8.778;2023-12-20T13:31:20;8.60;86.50
24678;DHT22;12800;53.094;8.778;2023-12-20T13:33:46;8.60;86.50
24678;DHT22;12800;53.094;8.778;2023-12-20T13:36:12;8.60;86.60
24678;DHT22;12800;53.094;8.778;2023-12-20T13:38:38;8.60;86.60
24678;DHT22;12800;53.094;8.778;2023-12-20T13:41:03;8.60;86.70
24678;DHT22;12800;53.094;8.778;2023-12-20T13:43:30;8.60;86.80
24678;DHT22;12800;53.094;8.778;2023-12-20T13:46:01;8.60;87.00
24678;DHT22;12800;53.094;8.778;2023-12-20T13:48:26;8.60;87.00
24678;DHT22;12800;53.094;8.778;2023-12-20T13:50:52;8.70;87.10
24678;DHT22;12800;53.094;8.778;2023-12-20T13:53:18;8.70;87.10
24678;DHT22;12800;53.094;8.778;2023-12-20T13:55:44;8.70;87.00
24678;DHT22;12800;53.094;8.778;2023-12-20T13:58:10;8.70;87.00
24678;DHT22;12800;53.094;8.778;2023-12-20T14:00:36;8.70;87.10
24678;DHT22;12800;53.094;8.778;2023-12-20T14:03:03;8.60;87.00
24678;DHT22;12800;53.094;8.778;2023-12-20T14:05:29;8.70;87.10
24678;DHT22;12800;53.094;8.778;2023-12-20T14:07:55;8.60;86.80
24678;DHT22;12800;53.094;8.778;2023-12-20T14:10:23;8.60;86.70
24678;DHT22;12800;53.094;8.778;2023-12-20T14:12:52;8.60;86.60
24678;DHT22;12800;53.094;8.778;2023-12-20T14:15:17;8.60;86.70
24678;DHT22;12800;53.094;8.778;2023-12-20T14:17:43;8.60;86.70
24678;DHT22;12800;53.094;8.778;2023-12-20T14:20:09;8.60;86.90
24678;DHT22;12800;53.094;8.778;2023-12-20T14:22:35;8.60;86.70
24678;DHT22;12800;53.094;8.778;2023-12-20T14:25:01;8.50;86.30
24678;DHT22;12800;53.094;8.778;2023-12-20T14:27:28;8.50;86.30
24678;DHT22;12800;53.094;8.778;2023-12-20T14:29:54;8.50;86.20
24678;DHT22;12800;53.094;8.778;2023-12-20T14:32:20;8.50;86.40
24678;DHT22;12800;53.094;8.778;2023-12-20T14:34:46;8.50;86.40
24678;DHT22;12800;53.094;8.778;2023-12-20T14:37:15;8.50;86.30
24678;DHT22;12800;53.094;8.778;2023-12-20T14:39:42;8.50;86.30
24678;DHT22;12800;53.094;8.778;2023-12-20T14:42:08;8.50;86.30
24678;DHT22;12800;53.094;8.778;2023-12-20T14:44:37;8.40;86.90
24678;DHT22;12800;53.094;8.778;2023-12-20T14:47:03;8.50;86.20
24678;DHT22;12800;53.094;8.778;2023-12-20T14:49:30;8.40;86.10
24678;DHT22;12800;53.094;8.778;2023-12-20T14:51:55;8.40;86.10
24678;DHT22;12800;53.094;8.778;2023-12-20T14:54:21;8.40;86.10
24678;DHT22;12800;53.094;8.778;2023-12-20T14:56:47;8.40;86.10
24678;DHT22;12800;53.094;8.778;2023-12-20T14:59:13;8.40;86.20
24678;DHT22;12800;53.094;8.778;2023-12-20T15:01:39;8.40;86.10
24678;DHT22;12800;53.094;8.778;2023-12-20T15:04:08;8.40;86.10
24678;DHT22;12800;53.094;8.778;2023-12-20T15:06:34;8.40;86.20
24678;DHT22;12800;53.094;8.778;2023-12-20T15:09:00;8.40;86.30
24678;DHT22;12800;53.094;8.778;2023-12-20T15:11:26;8.40;86.40
24678;DHT22;12800;53.094;8.778;2023-12-20T15:13:52;8.40;86.30
24678;DHT22;12800;53.094;8.778;2023-12-20T15:16:24;8.40;86.30
24678;DHT22;12800;53.094;8.778;2023-12-20T15:18:51;8.40;86.30
24678;DHT22;12800;53.094;8.778;2023-12-20T15:21:17;8.40;86.30
24678;DHT22;12800;53.094;8.778;2023-12-20T15:23:43;8.40;86.40
24678;DHT22;12800;53.094;8.778;2023-12-20T15:26:18;8.40;86.60
24678;DHT22;12800;53.094;8.778;2023-12-20T15:28:44;8.40;86.60
24678;DHT22;12800;53.094;8.778;2023-12-20T15:31:09;8.50;86.70
24678;DHT22;12800;53.094;8.778;2023-12-20T15:33:35;8.50;86.70
24678;DHT22;12800;53.094;8.778;2023-12-20T15:36:00;8.40;86.70
24678;DHT22;12800;53.094;8.778;2023-12-20T15:38:26;8.40;86.70